Portada
METAR-TAF:

METAR-TAF

Aeroports :

Den Helder, Països Baixos

latitud: 52-55N, longitud: 004-47E, altitud: 0 m

Observació

L'informe es va fer fa 27 minuts, a les 17:55 UTC
Vent 6 kt del Nord/Nord-Est, variant entre Nord-Oest i Nord-Est
Temperatura 21°C
Humitat 53%
Pressió 1013 hPa
Visibilitat 10 km o més
sense núvols per sota de 1500 mi sense presència de cumulonimbus.

METAR: EHKD 021755Z AUTO 36006KT 310V040 9999 OVC170 21/11 Q1013 BLU 03006KT CAVOK

Hora: 20:22 (18:22 UTC)

Pronòstic

L'informe es va fer fa 1 hora i 57 minuts, a les 16:25 UTC
Pronòstic vàlid del 02 a les 17 UTC al 03 a les 05 UTC
Vent 7 kt del Nord
Visibilitat 10 km o més
sense núvols per sota de 1500 mi sense presència de cumulonimbus.

TAF: EHKD 021625Z 0217/0305 01007KT CAVOK

Observacions i pronòstics meteorològics de més de 4000 aeroports (METAR i TAF).

Les estacions disponibles són els punts grocs i vermells al mapa.

Posi el ratolí al punt desitjat per veure el nom de l'estació.

Feu clic per veure les observacions i els pronòstics meteorològics.

Per canviar el mapa: feu clic els botons verds amb una creu de color negre per apropar; al botó verd amb un guió per allunyar la imatge; o en les fletxes verdes per a mapes adjacents.


METAR-TAF: